Time;durP1;ratioP1;P1;durP2;ratioP2;P2;SDS_P1;SDS_P2;PMS_P1;PMS_P2;Temp;Humidity;BMP_temperature;BMP_pressure;BME280_temperature;BME280_humidity;BME280_pressure;Samples;Min_cycle;Max_cycle;Signal;HPM_P1;HPM_P2
2021/04/11 00:01:11;;;;;;;8.07;7.13;;;;;;;;;;5007831;28;38481;-81
2021/04/11 00:03:37;;;;;;;8.40;6.37;;;;;;;;;;5022980;28;37990;-82
2021/04/11 00:06:04;;;;;;;7.30;6.50;;;;;;;;;;5020919;28;37700;-80
2021/04/11 00:08:43;;;;;;;10.37;7.30;;;;;;;;;;5009433;28;37556;-83
2021/04/11 00:11:11;;;;;;;7.13;5.73;;;;;;;;;;5022516;28;36848;-81
2021/04/11 00:13:39;;;;;;;7.97;6.50;;;;;;;;;;5007299;28;37184;-82
2021/04/11 00:16:06;;;;;;;7.57;6.13;;;;;;;;;;5018095;28;37577;-81
2021/04/11 00:18:33;;;;;;;9.93;6.87;;;;;;;;;;5020209;28;39005;-82
2021/04/11 00:21:02;;;;;;;10.97;7.53;;;;;;;;;;5015586;28;38583;-81
2021/04/11 00:23:28;;;;;;;7.67;6.00;;;;;;;;;;5014056;28;36458;-81
2021/04/11 00:25:55;;;;;;;8.30;6.33;;;;;;;;;;5002695;28;39234;-82
2021/04/11 00:28:22;;;;;;;8.20;6.80;;;;;;;;;;5024337;28;37389;-81
2021/04/11 00:30:48;;;;;;;9.90;6.73;;;;;;;;;;5003291;28;37158;-81
2021/04/11 00:33:35;;;;;;;9.07;6.97;;;;;;;;;;5014997;28;36002;-81
2021/04/11 00:36:03;;;;;;;8.47;6.83;;;;;;;;;;5011179;28;38146;-80
2021/04/11 00:38:30;;;;;;;9.33;6.73;;;;;;;;;;4998148;28;48624;-81
2021/04/11 00:40:59;;;;;;;6.67;5.90;;;;;;;;;;5019783;28;38412;-81
2021/04/11 00:43:26;;;;;;;7.97;5.93;;;;;;;;;;4997559;28;37925;-81
2021/04/11 00:45:55;;;;;;;8.93;6.13;;;;;;;;;;5010766;28;38947;-81
2021/04/11 00:48:23;;;;;;;9.33;6.30;;;;;;;;;;5012336;28;40045;-81
2021/04/11 00:51:02;;;;;;;8.17;5.87;;;;;;;;;;5016504;28;37143;-82
2021/04/11 00:53:43;;;;;;;8.70;5.47;;;;;;;;;;4993582;28;47196;-81
2021/04/11 00:56:11;;;;;;;6.37;5.67;;;;;;;;;;4994616;28;39155;-81
2021/04/11 00:58:38;;;;;;;6.77;5.40;;;;;;;;;;5009867;28;39080;-81
2021/04/11 01:01:06;;;;;;;6.50;5.07;;;;;;;;;;4993722;28;38602;-80
2021/04/11 01:03:33;;;;;;;4.93;4.53;;;;;;;;;;4997201;28;37751;-81
2021/04/11 01:06:00;;;;;;;7.40;4.60;;;;;;;;;;5017648;28;37685;-81
2021/04/11 01:08:32;;;;;;;5.37;4.30;;;;;;;;;;4996279;28;38676;-81
2021/04/11 01:11:02;;;;;;;5.70;3.22;;;;;;;;;;5021247;28;37206;-82
2021/04/11 01:13:29;;;;;;;4.93;3.97;;;;;;;;;;5005631;28;50049;-81
2021/04/11 01:15:57;;;;;;;5.50;3.90;;;;;;;;;;5024769;28;37715;-81
2021/04/11 01:18:25;;;;;;;5.37;4.30;;;;;;;;;;5008925;28;39646;-80
2021/04/11 01:20:53;;;;;;;4.60;3.43;;;;;;;;;;5029681;28;38119;-80
2021/04/11 01:23:19;;;;;;;7.83;3.87;;;;;;;;;;5023426;28;37103;-81
2021/04/11 01:25:47;;;;;;;7.03;4.73;;;;;;;;;;5025260;28;38508;-81
2021/04/11 01:28:18;;;;;;;4.83;4.33;;;;;;;;;;5006573;28;39939;-81
2021/04/11 01:30:46;;;;;;;6.70;4.73;;;;;;;;;;5007930;28;38142;-81
2021/04/11 01:33:14;;;;;;;5.10;4.50;;;;;;;;;;5003128;28;36808;-81
2021/04/11 01:35:40;;;;;;;5.93;5.03;;;;;;;;;;5019110;28;38950;-80
2021/04/11 01:38:08;;;;;;;6.10;4.63;;;;;;;;;;5018787;28;38970;-81
2021/04/11 01:40:48;;;;;;;7.60;5.40;;;;;;;;;;5009854;28;39045;-81
2021/04/11 01:43:15;;;;;;;5.50;4.53;;;;;;;;;;4997593;28;36939;-80
2021/04/11 01:45:42;;;;;;;4.37;3.97;;;;;;;;;;4994725;28;38846;-80
2021/04/11 01:48:09;;;;;;;7.00;4.40;;;;;;;;;;5017656;28;39172;-81
2021/04/11 01:50:36;;;;;;;6.03;4.90;;;;;;;;;;5022137;28;38029;-81
2021/04/11 01:53:05;;;;;;;8.33;4.70;;;;;;;;;;5013945;28;36664;-80
2021/04/11 01:55:31;;;;;;;6.37;4.73;;;;;;;;;;5006815;28;39158;-80
2021/04/11 01:57:58;;;;;;;6.93;5.17;;;;;;;;;;5001527;28;38738;-80
2021/04/11 02:00:35;;;;;;;10.83;5.77;;;;;;;;;;4995249;28;39108;-81
2021/04/11 02:03:04;;;;;;;7.87;6.53;;;;;;;;;;5010701;28;35471;-81
2021/04/11 02:05:31;;;;;;;9.80;7.67;;;;;;;;;;5012638;28;49533;-81
2021/04/11 02:07:58;;;;;;;9.53;8.00;;;;;;;;;;4995620;28;37240;-81
2021/04/11 02:10:28;;;;;;;9.83;8.83;;;;;;;;;;4997632;28;37952;-81
2021/04/11 02:12:55;;;;;;;12.37;10.57;;;;;;;;;;5007786;28;38483;-81
2021/04/11 02:15:24;;;;;;;13.37;11.27;;;;;;;;;;4985903;28;40952;-80
2021/04/11 02:17:52;;;;;;;17.77;12.63;;;;;;;;;;5000906;28;37086;-80
2021/04/11 02:20:19;;;;;;;19.13;13.00;;;;;;;;;;4996974;28;38515;-80
2021/04/11 02:22:48;;;;;;;16.00;11.70;;;;;;;;;;4984270;28;37124;-79
2021/04/11 02:25:19;;;;;;;15.73;11.90;;;;;;;;;;4996186;28;39597;-80
2021/04/11 02:27:46;;;;;;;13.27;10.80;;;;;;;;;;4997980;28;37384;-80
2021/04/11 02:30:14;;;;;;;15.57;10.83;;;;;;;;;;4997584;28;40211;-79
2021/04/11 02:32:41;;;;;;;16.23;10.50;;;;;;;;;;4997625;28;38525;-79
2021/04/11 02:35:08;;;;;;;13.47;11.07;;;;;;;;;;4998763;28;38847;-79
2021/04/11 02:37:36;;;;;;;16.73;10.40;;;;;;;;;;5001144;28;39814;-79
2021/04/11 02:40:05;;;;;;;13.13;9.63;;;;;;;;;;4993779;28;38729;-80
2021/04/11 02:42:34;;;;;;;14.30;10.10;;;;;;;;;;4977856;28;49030;-81
2021/04/11 02:45:23;;;;;;;19.57;10.53;;;;;;;;;;4979466;28;38811;-79
2021/04/11 02:47:52;;;;;;;18.43;11.57;;;;;;;;;;4989864;28;46719;-79
2021/04/11 02:50:19;;;;;;;16.20;11.40;;;;;;;;;;4979858;28;38244;-80
2021/04/11 02:52:56;;;;;;;17.53;11.10;;;;;;;;;;4998164;28;37860;-79
2021/04/11 02:55:24;;;;;;;14.00;10.43;;;;;;;;;;4995736;28;39313;-79
2021/04/11 02:57:54;;;;;;;16.23;9.47;;;;;;;;;;4997174;28;39212;-79
2021/04/11 03:00:23;;;;;;;15.07;8.13;;;;;;;;;;5004902;28;39670;-80
2021/04/11 03:02:49;;;;;;;12.97;9.00;;;;;;;;;;4981222;28;36715;-79
2021/04/11 03:05:17;;;;;;;12.87;8.07;;;;;;;;;;4998333;28;39616;-81
2021/04/11 03:07:45;;;;;;;8.07;5.90;;;;;;;;;;4995715;28;38995;-80
2021/04/11 03:10:18;;;;;;;7.70;4.27;;;;;;;;;;4995130;28;38836;-80
2021/04/11 03:12:45;;;;;;;6.72;4.10;;;;;;;;;;4982228;28;37918;-80
2021/04/11 03:15:12;;;;;;;6.37;3.60;;;;;;;;;;4983688;28;39093;-80
2021/04/11 03:17:40;;;;;;;4.77;3.33;;;;;;;;;;5004147;28;39289;-80
2021/04/11 03:20:06;;;;;;;8.87;4.23;;;;;;;;;;4977967;28;38337;-79
2021/04/11 03:22:33;;;;;;;9.67;5.23;;;;;;;;;;4994577;28;35697;-80
2021/04/11 03:24:59;;;;;;;10.13;5.30;;;;;;;;;;4993243;28;38161;-79
2021/04/11 03:27:29;;;;;;;8.73;5.67;;;;;;;;;;4993626;28;38645;-79
2021/04/11 03:30:16;;;;;;;10.77;5.77;;;;;;;;;;4978769;28;38724;-79
2021/04/11 03:32:47;;;;;;;10.00;5.83;;;;;;;;;;4972653;28;47261;-80
2021/04/11 03:35:15;;;;;;;10.70;5.77;;;;;;;;;;4982793;28;38195;-80
2021/04/11 03:37:43;;;;;;;12.80;6.60;;;;;;;;;;4977863;28;39317;-80
2021/04/11 03:40:12;;;;;;;11.97;7.37;;;;;;;;;;4981904;28;37950;-79
2021/04/11 03:42:42;;;;;;;15.03;7.13;;;;;;;;;;4995952;28;37672;-79
2021/04/11 03:45:08;;;;;;;13.60;7.37;;;;;;;;;;4993330;28;39851;-79
2021/04/11 03:47:44;;;;;;;17.43;7.23;;;;;;;;;;4995268;28;38656;-79
2021/04/11 03:50:15;;;;;;;15.23;6.77;;;;;;;;;;4985646;28;40008;-79
2021/04/11 03:53:08;;;;;;;10.13;6.63;;;;;;;;;;4993965;28;38536;-79
2021/04/11 03:55:38;;;;;;;11.38;6.93;;;;;;;;;;4955090;28;47385;-79
2021/04/11 03:58:10;;;;;;;13.30;6.60;;;;;;;;;;4993248;28;39873;-79
2021/04/11 04:00:39;;;;;;;12.32;5.47;;;;;;;;;;4979685;28;39223;-79
2021/04/11 04:03:08;;;;;;;10.93;5.17;;;;;;;;;;4979784;28;36615;-80
2021/04/11 04:05:36;;;;;;;9.80;4.30;;;;;;;;;;4992576;28;39668;-79
2021/04/11 04:08:03;;;;;;;7.40;3.57;;;;;;;;;;4976883;28;39209;-79
2021/04/11 04:10:37;;;;;;;9.63;4.13;;;;;;;;;;4998373;28;38740;-79
2021/04/11 04:13:06;;;;;;;6.97;2.40;;;;;;;;;;4994610;28;38713;-79
2021/04/11 04:15:49;;;;;;;11.60;1.83;;;;;;;;;;4996682;28;39252;-79
2021/04/11 04:18:27;;;;;;;6.93;2.23;;;;;;;;;;4996521;28;39982;-79
2021/04/11 04:21:05;;;;;;;4.10;1.67;;;;;;;;;;4978016;28;38820;-78
2021/04/11 04:23:31;;;;;;;7.10;2.17;;;;;;;;;;5000813;28;47185;-78
2021/04/11 04:26:12;;;;;;;5.63;1.40;;;;;;;;;;4991550;28;40235;-80
2021/04/11 04:28:47;;;;;;;6.93;1.33;;;;;;;;;;4980782;28;47351;-79
2021/04/11 04:31:23;;;;;;;5.07;1.30;;;;;;;;;;4996152;28;38278;-79
2021/04/11 04:33:54;;;;;;;6.97;1.47;;;;;;;;;;4981163;28;35541;-79
2021/04/11 04:36:40;;;;;;;8.97;1.73;;;;;;;;;;4996967;28;39979;-78
2021/04/11 04:39:36;;;;;;;14.40;2.20;;;;;;;;;;4979864;28;39976;-79
2021/04/11 04:42:18;;;;;;;8.87;2.27;;;;;;;;;;4979931;28;39057;-79
2021/04/11 04:44:48;;;;;;;7.90;2.08;;;;;;;;;;4995595;28;38734;-80
2021/04/11 04:47:20;;;;;;;7.87;1.60;;;;;;;;;;4983600;28;38568;-79
2021/04/11 04:49:53;;;;;;;7.13;1.75;;;;;;;;;;4982277;28;37200;-80
2021/04/11 04:52:28;;;;;;;8.47;1.60;;;;;;;;;;4983296;28;37907;-79
2021/04/11 04:54:58;;;;;;;6.83;1.83;;;;;;;;;;4993342;28;38334;-80
2021/04/11 04:57:27;;;;;;;9.23;1.77;;;;;;;;;;4986378;28;39256;-79
2021/04/11 04:59:58;;;;;;;7.33;1.93;;;;;;;;;;4984126;28;39550;-80
2021/04/11 05:02:26;;;;;;;11.07;2.57;;;;;;;;;;4985342;28;38145;-79
2021/04/11 05:04:55;;;;;;;8.37;1.70;;;;;;;;;;4985069;28;37033;-79
2021/04/11 05:07:24;;;;;;;6.70;1.77;;;;;;;;;;4995083;28;39894;-79
2021/04/11 05:09:52;;;;;;;7.27;1.60;;;;;;;;;;4978017;28;38747;-80
2021/04/11 05:12:28;;;;;;;7.37;1.70;;;;;;;;;;4980254;28;38117;-79
2021/04/11 05:14:59;;;;;;;11.03;3.43;;;;;;;;;;4976602;28;36112;-79
2021/04/11 05:17:29;;;;;;;7.23;1.90;;;;;;;;;;4980940;28;42250;-79
2021/04/11 05:20:05;;;;;;;11.27;1.63;;;;;;;;;;4978957;28;39040;-79
2021/04/11 05:22:35;;;;;;;11.43;2.13;;;;;;;;;;4979398;28;48394;-79
2021/04/11 05:25:05;;;;;;;14.60;1.70;;;;;;;;;;4997678;28;37704;-79
2021/04/11 05:27:51;;;;;;;8.57;2.07;;;;;;;;;;4996929;28;46399;-79
2021/04/11 05:30:21;;;;;;;14.53;1.70;;;;;;;;;;4990644;28;38682;-79
2021/04/11 05:32:48;;;;;;;9.23;1.40;;;;;;;;;;4997164;28;37023;-79
2021/04/11 05:35:15;;;;;;;7.60;2.00;;;;;;;;;;4991308;28;37386;-80
2021/04/11 05:37:50;;;;;;;8.90;1.57;;;;;;;;;;4997864;28;39394;-79
2021/04/11 05:40:18;;;;;;;8.83;1.80;;;;;;;;;;4996262;28;38573;-79
2021/04/11 05:42:54;;;;;;;9.47;1.67;;;;;;;;;;4981277;28;38621;-79
2021/04/11 05:45:21;;;;;;;9.10;1.60;;;;;;;;;;4998240;28;37234;-79
2021/04/11 05:47:47;;;;;;;10.07;1.77;;;;;;;;;;4983881;28;39835;-79
2021/04/11 05:50:25;;;;;;;16.07;2.50;;;;;;;;;;4996262;28;39218;-79
2021/04/11 05:53:07;;;;;;;12.27;1.80;;;;;;;;;;4980534;28;38475;-78
2021/04/11 05:55:37;;;;;;;12.37;2.00;;;;;;;;;;4975233;28;47300;-78
2021/04/11 05:58:15;;;;;;;9.43;2.03;;;;;;;;;;4980302;28;38251;-79
2021/04/11 06:00:49;;;;;;;10.87;2.30;;;;;;;;;;4994629;28;47089;-78
2021/04/11 06:03:19;;;;;;;10.97;1.50;;;;;;;;;;4994646;28;37761;-79
2021/04/11 06:05:52;;;;;;;10.47;1.80;;;;;;;;;;4981829;28;37476;-79
2021/04/11 06:08:34;;;;;;;8.67;1.73;;;;;;;;;;4996156;28;39868;-78
2021/04/11 06:11:02;;;;;;;9.67;2.10;;;;;;;;;;4984645;28;38372;-79
2021/04/11 06:13:37;;;;;;;15.03;1.93;;;;;;;;;;4986348;28;49092;-79
2021/04/11 06:16:12;;;;;;;10.83;1.87;;;;;;;;;;4992231;28;37502;-79
2021/04/11 06:18:46;;;;;;;11.27;2.10;;;;;;;;;;4977549;28;39067;-78
2021/04/11 06:21:21;;;;;;;7.87;1.70;;;;;;;;;;4992113;28;39193;-78
2021/04/11 06:23:55;;;;;;;14.73;1.67;;;;;;;;;;4992281;28;37147;-79
2021/04/11 06:26:27;;;;;;;12.83;1.63;;;;;;;;;;4992921;28;38647;-78
2021/04/11 06:28:57;;;;;;;5.68;1.50;;;;;;;;;;4993016;28;37749;-78
2021/04/11 06:31:28;;;;;;;10.40;1.63;;;;;;;;;;4981018;28;38275;-78
2021/04/11 06:34:01;;;;;;;8.03;1.60;;;;;;;;;;4991569;28;39284;-78
2021/04/11 06:36:33;;;;;;;11.67;1.80;;;;;;;;;;4978253;28;49118;-80
2021/04/11 06:39:20;;;;;;;6.82;1.58;;;;;;;;;;4978530;28;38652;-78
2021/04/11 06:41:56;;;;;;;13.87;2.03;;;;;;;;;;4980274;28;47520;-79
2021/04/11 06:44:25;;;;;;;10.77;1.80;;;;;;;;;;4992303;28;37252;-78
2021/04/11 06:46:51;;;;;;;6.60;1.73;;;;;;;;;;4996990;28;37465;-78
2021/04/11 06:49:18;;;;;;;9.70;1.80;;;;;;;;;;4981389;28;39979;-79
2021/04/11 06:52:03;;;;;;;5.50;1.30;;;;;;;;;;4993258;28;39077;-79
2021/04/11 06:54:53;;;;;;;11.63;1.50;;;;;;;;;;4994282;28;47331;-79
2021/04/11 06:57:26;;;;;;;10.97;2.93;;;;;;;;;;4998248;28;38420;-78
2021/04/11 06:59:59;;;;;;;5.07;1.30;;;;;;;;;;5001653;28;40607;-78
2021/04/11 07:02:26;;;;;;;8.45;1.27;;;;;;;;;;5001210;28;38837;-79
2021/04/11 07:05:07;;;;;;;5.80;1.77;;;;;;;;;;4982477;28;38240;-79
2021/04/11 07:07:45;;;;;;;8.03;2.00;;;;;;;;;;4978553;28;48661;-79
2021/04/11 07:10:14;;;;;;;10.50;2.03;;;;;;;;;;4982217;28;39769;-78
2021/04/11 07:12:41;;;;;;;8.17;1.20;;;;;;;;;;4982011;28;39812;-79
2021/04/11 07:15:25;;;;;;;7.80;1.43;;;;;;;;;;4984385;28;38958;-79
2021/04/11 07:17:58;;;;;;;4.20;1.20;;;;;;;;;;4973876;28;36586;-79
2021/04/11 07:20:30;;;;;;;5.82;1.95;;;;;;;;;;4985822;28;38541;-79
2021/04/11 07:23:15;;;;;;;5.15;1.30;;;;;;;;;;4998677;28;39974;-79
2021/04/11 07:25:44;;;;;;;10.33;1.17;;;;;;;;;;5000049;28;47009;-79
2021/04/11 07:28:29;;;;;;;10.90;1.70;;;;;;;;;;4995382;28;37153;-79
2021/04/11 07:31:15;;;;;;;6.57;1.47;;;;;;;;;;5004827;28;39604;-79
2021/04/11 07:33:59;;;;;;;8.00;1.20;;;;;;;;;;4986339;28;49427;-79
2021/04/11 07:36:32;;;;;;;8.67;1.83;;;;;;;;;;4984111;28;39363;-79
2021/04/11 07:39:18;;;;;;;6.70;0.90;;;;;;;;;;4979777;28;37430;-78
2021/04/11 07:41:53;;;;;;;6.53;1.13;;;;;;;;;;4983636;28;47694;-78
2021/04/11 07:44:42;;;;;;;6.73;1.20;;;;;;;;;;4985958;28;37739;-79
2021/04/11 07:47:31;;;;;;;4.47;1.03;;;;;;;;;;4986716;28;38221;-79
2021/04/11 07:50:21;;;;;;;4.03;0.70;;;;;;;;;;5002610;28;37602;-79
2021/04/11 07:52:57;;;;;;;3.93;0.87;;;;;;;;;;4976758;28;49472;-79
2021/04/11 07:55:41;;;;;;;4.27;1.10;;;;;;;;;;4989785;28;38638;-79
2021/04/11 07:58:08;;;;;;;10.07;1.10;;;;;;;;;;4986547;28;38220;-79
2021/04/11 08:00:37;;;;;;;5.53;1.27;;;;;;;;;;4984919;28;36859;-79
2021/04/11 08:03:16;;;;;;;5.23;1.10;;;;;;;;;;4981270;28;39637;-78
2021/04/11 08:05:50;;;;;;;6.90;1.20;;;;;;;;;;4987978;28;38767;-80
2021/04/11 08:08:17;;;;;;;3.73;0.83;;;;;;;;;;4991157;28;38256;-80
2021/04/11 08:11:08;;;;;;;1.63;0.87;;;;;;;;;;5005580;28;37637;-79
2021/04/11 08:13:40;;;;;;;2.27;0.90;;;;;;;;;;4982706;28;48400;-79
2021/04/11 08:16:17;;;;;;;3.40;1.02;;;;;;;;;;4988640;28;38899;-79
2021/04/11 08:18:44;;;;;;;4.13;1.13;;;;;;;;;;5007205;28;40276;-80
2021/04/11 08:21:29;;;;;;;3.53;0.70;;;;;;;;;;5004781;28;35507;-80
2021/04/11 08:24:25;;;;;;;8.67;1.07;;;;;;;;;;5005356;28;40846;-79
2021/04/11 08:26:57;;;;;;;5.90;0.90;;;;;;;;;;5000037;28;47724;-80
2021/04/11 08:29:50;;;;;;;4.53;0.68;;;;;;;;;;5020709;28;37679;-79
2021/04/11 08:32:19;;;;;;;3.15;0.70;;;;;;;;;;4978066;28;37701;-79
2021/04/11 08:35:04;;;;;;;6.00;0.60;;;;;;;;;;5001426;28;40297;-79
2021/04/11 08:37:50;;;;;;;4.73;0.90;;;;;;;;;;5013662;28;46871;-79
2021/04/11 08:40:22;;;;;;;2.83;0.50;;;;;;;;;;4991725;28;38109;-79
2021/04/11 08:43:27;;;;;;;3.30;0.60;;;;;;;;;;4990442;28;36610;-80
2021/04/11 08:46:02;;;;;;;7.10;0.70;;;;;;;;;;4928963;28;48719;-80
2021/04/11 08:48:32;;;;;;;4.63;0.50;;;;;;;;;;4927321;28;49928;-79
2021/04/11 08:51:02;;;;;;;4.50;0.70;;;;;;;;;;4955471;28;38743;-79
2021/04/11 08:53:47;;;;;;;2.07;0.70;;;;;;;;;;5003430;28;46967;-79
2021/04/11 08:56:20;;;;;;;2.77;0.70;;;;;;;;;;4989182;28;39294;-79
2021/04/11 08:59:00;;;;;;;3.83;0.60;;;;;;;;;;4999250;28;39313;-80
2021/04/11 09:01:40;;;;;;;1.60;0.70;;;;;;;;;;4985049;28;41902;-79
2021/04/11 09:04:12;;;;;;;3.07;0.73;;;;;;;;;;5004050;28;38228;-80
2021/04/11 09:06:45;;;;;;;2.97;0.70;;;;;;;;;;4993909;28;40257;-78
2021/04/11 09:09:17;;;;;;;2.58;0.63;;;;;;;;;;4987215;28;40052;-79
2021/04/11 09:11:47;;;;;;;4.55;0.73;;;;;;;;;;4972887;28;38179;-79
2021/04/11 09:14:22;;;;;;;6.07;1.30;;;;;;;;;;4967784;28;37127;-78
2021/04/11 09:16:54;;;;;;;7.57;0.90;;;;;;;;;;4984550;28;39893;-78
2021/04/11 09:19:29;;;;;;;4.30;0.80;;;;;;;;;;5000452;28;37730;-79
2021/04/11 09:21:56;;;;;;;2.37;1.00;;;;;;;;;;4993946;28;38934;-79
2021/04/11 09:24:33;;;;;;;2.37;0.70;;;;;;;;;;4977445;28;38394;-79
2021/04/11 09:27:06;;;;;;;1.17;0.60;;;;;;;;;;4999733;28;39564;-79
2021/04/11 09:29:48;;;;;;;3.03;0.57;;;;;;;;;;5000704;28;47309;-78
2021/04/11 09:32:30;;;;;;;4.00;0.80;;;;;;;;;;4998059;28;39381;-79
2021/04/11 09:35:15;;;;;;;6.33;0.70;;;;;;;;;;5003717;28;35895;-78
2021/04/11 09:38:00;;;;;;;3.13;0.87;;;;;;;;;;4986569;28;48278;-79
2021/04/11 09:40:42;;;;;;;4.40;0.77;;;;;;;;;;4998717;28;38832;-78
2021/04/11 09:43:09;;;;;;;6.03;0.90;;;;;;;;;;4997709;28;40037;-78
2021/04/11 09:45:38;;;;;;;4.27;0.77;;;;;;;;;;4983028;28;36845;-77
2021/04/11 09:48:04;;;;;;;3.70;0.67;;;;;;;;;;4998629;28;40145;-79
2021/04/11 09:50:31;;;;;;;3.87;0.80;;;;;;;;;;4981075;28;38231;-79
2021/04/11 09:53:09;;;;;;;5.30;0.80;;;;;;;;;;4984961;28;37878;-78
2021/04/11 09:56:01;;;;;;;4.60;1.13;;;;;;;;;;5002524;28;47714;-78
2021/04/11 09:58:39;;;;;;;2.45;0.57;;;;;;;;;;4982033;28;40056;-78
2021/04/11 10:01:24;;;;;;;2.73;0.80;;;;;;;;;;4990386;28;38838;-77
2021/04/11 10:04:09;;;;;;;6.63;0.80;;;;;;;;;;4982783;28;40044;-79
2021/04/11 10:06:54;;;;;;;2.73;0.70;;;;;;;;;;4985446;28;47101;-79
2021/04/11 10:09:20;;;;;;;4.77;1.07;;;;;;;;;;4998422;28;39203;-79
2021/04/11 10:11:56;;;;;;;2.23;0.60;;;;;;;;;;5001906;28;38852;-79
2021/04/11 10:14:36;;;;;;;7.07;1.13;;;;;;;;;;4977784;28;38881;-79
2021/04/11 10:17:14;;;;;;;3.20;0.80;;;;;;;;;;4995360;28;37126;-80
2021/04/11 10:19:57;;;;;;;4.00;0.80;;;;;;;;;;4984200;28;39356;-81
2021/04/11 10:22:42;;;;;;;2.70;0.60;;;;;;;;;;4984892;28;38590;-81
2021/04/11 10:25:09;;;;;;;8.02;1.33;;;;;;;;;;4981534;28;37511;-80
2021/04/11 10:27:39;;;;;;;2.47;0.80;;;;;;;;;;4980653;28;37276;-79
2021/04/11 10:30:06;;;;;;;2.53;0.70;;;;;;;;;;4982919;28;38701;-78
2021/04/11 10:32:55;;;;;;;4.70;1.00;;;;;;;;;;4990047;28;38057;-79
2021/04/11 10:35:21;;;;;;;9.02;1.08;;;;;;;;;;5001829;28;40158;-80
2021/04/11 10:37:52;;;;;;;5.23;0.93;;;;;;;;;;4983740;28;37155;-78
2021/04/11 10:40:37;;;;;;;5.20;0.90;;;;;;;;;;4999195;28;39188;-80
2021/04/11 10:43:06;;;;;;;6.17;0.90;;;;;;;;;;4983195;28;40435;-81
2021/04/11 10:45:45;;;;;;;2.00;0.50;;;;;;;;;;4999712;28;38850;-80
2021/04/11 10:48:31;;;;;;;3.00;0.50;;;;;;;;;;4989098;28;37099;-79
2021/04/11 10:51:09;;;;;;;4.47;0.70;;;;;;;;;;4981782;28;39184;-79
2021/04/11 10:53:53;;;;;;;5.13;0.82;;;;;;;;;;4988720;28;47185;-78
2021/04/11 10:56:34;;;;;;;10.53;1.10;;;;;;;;;;4998039;28;38890;-78
2021/04/11 10:59:13;;;;;;;5.43;0.80;;;;;;;;;;4996740;28;37245;-79
2021/04/11 11:01:50;;;;;;;6.60;0.70;;;;;;;;;;4978709;28;48629;-81
2021/04/11 11:04:22;;;;;;;3.93;0.63;;;;;;;;;;4981212;28;38506;-80
2021/04/11 11:07:08;;;;;;;7.28;1.05;;;;;;;;;;5003569;28;38799;-80
2021/04/11 11:09:37;;;;;;;4.10;0.75;;;;;;;;;;4975377;28;47078;-79
2021/04/11 11:12:06;;;;;;;5.97;1.00;;;;;;;;;;4982976;28;38846;-77
2021/04/11 11:14:42;;;;;;;4.10;0.80;;;;;;;;;;4978747;28;37981;-78
2021/04/11 11:17:15;;;;;;;4.47;0.70;;;;;;;;;;4982275;28;39067;-78
2021/04/11 11:19:47;;;;;;;2.43;0.60;;;;;;;;;;4998351;28;38528;-82
2021/04/11 11:22:38;;;;;;;7.28;0.75;;;;;;;;;;4987687;28;39981;-82
2021/04/11 11:25:23;;;;;;;3.00;0.53;;;;;;;;;;4990442;28;38878;-82
2021/04/11 11:28:13;;;;;;;3.37;0.60;;;;;;;;;;4987763;28;39157;-81
2021/04/11 11:30:46;;;;;;;7.67;0.70;;;;;;;;;;4979958;28;47167;-81
2021/04/11 11:33:31;;;;;;;3.35;0.82;;;;;;;;;;4986696;28;38087;-80
2021/04/11 11:36:11;;;;;;;3.27;0.67;;;;;;;;;;5000341;28;39126;-81
2021/04/11 11:38:44;;;;;;;3.50;0.80;;;;;;;;;;4990168;28;47202;-81
2021/04/11 11:41:10;;;;;;;;;;;;;;;;;;5007670;28;37306;-81
2021/04/11 11:43:57;;;;;;;5.53;0.70;;;;;;;;;;5000585;28;38054;-82
2021/04/11 11:46:27;;;;;;;4.63;0.50;;;;;;;;;;4982588;28;39127;-79
2021/04/11 11:49:32;;;;;;;4.13;0.63;;;;;;;;;;4993198;28;37779;-79
2021/04/11 11:52:04;;;;;;;1.77;0.40;;;;;;;;;;4926313;29;49153;-79
2021/04/11 11:54:34;;;;;;;3.13;0.57;;;;;;;;;;4906781;29;47151;-79
2021/04/11 11:57:21;;;;;;;2.90;0.47;;;;;;;;;;4964403;28;38811;-80
2021/04/11 11:59:47;;;;;;;2.93;0.50;;;;;;;;;;4990297;28;49221;-79
2021/04/11 12:02:43;;;;;;;4.00;0.70;;;;;;;;;;5001129;28;38278;-79
2021/04/11 12:05:10;;;;;;;1.67;0.50;;;;;;;;;;5008120;28;38843;-79
2021/04/11 12:07:38;;;;;;;5.17;0.90;;;;;;;;;;5010267;28;39096;-79
2021/04/11 12:10:16;;;;;;;4.87;0.57;;;;;;;;;;5010962;28;39075;-78
2021/04/11 12:13:03;;;;;;;4.23;0.50;;;;;;;;;;5012033;28;38335;-79
2021/04/11 12:15:40;;;;;;;3.90;0.40;;;;;;;;;;5003450;28;47079;-78
2021/04/11 12:18:06;;;;;;;2.80;0.73;;;;;;;;;;5009199;28;39885;-78
2021/04/11 12:20:33;;;;;;;3.17;0.60;;;;;;;;;;5025396;28;38710;-79
2021/04/11 12:22:59;;;;;;;0.90;0.50;;;;;;;;;;5033375;28;37807;-79
2021/04/11 12:25:26;;;;;;;2.00;0.50;;;;;;;;;;5012380;28;40019;-79
2021/04/11 12:27:53;;;;;;;3.78;0.50;;;;;;;;;;5002386;28;728817;-80
2021/04/11 12:30:20;;;;;;;1.27;0.40;;;;;;;;;;5005744;28;38072;-79
2021/04/11 12:32:55;;;;;;;2.88;0.55;;;;;;;;;;5017941;28;37050;-80
2021/04/11 12:35:24;;;;;;;5.68;1.85;;;;;;;;;;5023044;28;40476;-79
2021/04/11 12:38:00;;;;;;;4.00;0.77;;;;;;;;;;5009124;28;39428;-79
2021/04/11 12:40:36;;;;;;;3.67;0.60;;;;;;;;;;5009871;28;48635;-79
2021/04/11 12:43:26;;;;;;;2.25;0.70;;;;;;;;;;5025088;28;36715;-77
2021/04/11 12:46:05;;;;;;;4.50;0.60;;;;;;;;;;5013039;28;40544;-78
2021/04/11 12:48:49;;;;;;;2.63;0.65;;;;;;;;;;5025540;28;47792;-78
2021/04/11 12:51:19;;;;;;;2.10;0.70;;;;;;;;;;5002503;28;37066;-79
2021/04/11 12:54:04;;;;;;;5.38;0.88;;;;;;;;;;4988114;28;36801;-79
2021/04/11 12:56:32;;;;;;;4.13;0.70;;;;;;;;;;4992628;28;47274;-80
2021/04/11 12:59:07;;;;;;;3.80;0.70;;;;;;;;;;4984947;28;38286;-79
2021/04/11 13:01:43;;;;;;;2.80;0.70;;;;;;;;;;4987604;28;48727;-79
2021/04/11 13:04:16;;;;;;;2.30;0.52;;;;;;;;;;4985300;28;35924;-79
2021/04/11 13:06:42;;;;;;;;;;;;;;;;;;4986734;28;40081;-79
2021/04/11 13:09:20;;;;;;;1.77;0.40;;;;;;;;;;5003235;28;37397;-78
2021/04/11 13:11:57;;;;;;;4.40;0.60;;;;;;;;;;4984985;28;38272;-78
2021/04/11 13:14:42;;;;;;;4.00;0.80;;;;;;;;;;4987297;28;36757;-79
2021/04/11 13:17:29;;;;;;;3.50;0.60;;;;;;;;;;4986606;28;40176;-78
2021/04/11 13:19:59;;;;;;;3.30;0.70;;;;;;;;;;4963494;28;37303;-79
2021/04/11 13:22:30;;;;;;;2.63;0.57;;;;;;;;;;4987042;28;40194;-79
2021/04/11 13:25:06;;;;;;;5.50;0.60;;;;;;;;;;4990425;28;37851;-79
2021/04/11 13:27:35;;;;;;;3.43;1.20;;;;;;;;;;4989336;28;48873;-79
2021/04/11 13:30:14;;;;;;;4.40;0.80;;;;;;;;;;4981062;28;38907;-78
2021/04/11 13:32:43;;;;;;;5.53;0.70;;;;;;;;;;4986401;28;47234;-78
2021/04/11 13:35:10;;;;;;;3.57;0.57;;;;;;;;;;5000830;28;37035;-78
2021/04/11 13:37:42;;;;;;;5.63;0.77;;;;;;;;;;4980494;28;40474;-79
2021/04/11 13:40:10;;;;;;;3.55;1.02;;;;;;;;;;4984719;28;39627;-79
2021/04/11 13:42:54;;;;;;;3.20;0.60;;;;;;;;;;5001301;28;39908;-79
2021/04/11 13:45:30;;;;;;;3.50;0.50;;;;;;;;;;5004393;28;37909;-79
2021/04/11 13:48:06;;;;;;;3.75;0.73;;;;;;;;;;4986441;28;39842;-80
2021/04/11 13:50:41;;;;;;;4.13;0.60;;;;;;;;;;4997517;28;46920;-79
2021/04/11 13:53:20;;;;;;;3.97;0.73;;;;;;;;;;4985890;28;38000;-79
2021/04/11 13:55:46;;;;;;;4.05;0.73;;;;;;;;;;4984336;28;36809;-79
2021/04/11 13:58:13;;;;;;;1.80;0.55;;;;;;;;;;5011195;28;39067;-79
2021/04/11 14:00:57;;;;;;;2.42;0.60;;;;;;;;;;5000595;28;40284;-78
2021/04/11 14:03:30;;;;;;;2.58;0.60;;;;;;;;;;4980478;28;39915;-79
2021/04/11 14:05:58;;;;;;;3.65;0.90;;;;;;;;;;4983231;28;37024;-79
2021/04/11 14:08:27;;;;;;;3.05;0.57;;;;;;;;;;5008389;28;40930;-80
2021/04/11 14:11:13;;;;;;;4.85;1.02;;;;;;;;;;4990806;28;38596;-80
2021/04/11 14:13:47;;;;;;;4.40;0.82;;;;;;;;;;4987957;28;47324;-79
2021/04/11 14:16:18;;;;;;;7.30;1.08;;;;;;;;;;4995117;28;37600;-79
2021/04/11 14:18:53;;;;;;;4.13;0.95;;;;;;;;;;5002111;28;39625;-79
2021/04/11 14:21:25;;;;;;;3.80;0.70;;;;;;;;;;4994656;28;38902;-79
2021/04/11 14:23:52;;;;;;;5.07;0.85;;;;;;;;;;4990297;28;38764;-79
2021/04/11 14:26:25;;;;;;;3.27;1.00;;;;;;;;;;5000452;28;37260;-79
2021/04/11 14:29:01;;;;;;;3.85;1.15;;;;;;;;;;5001435;28;39651;-79
2021/04/11 14:31:36;;;;;;;3.97;0.55;;;;;;;;;;4986125;28;49167;-79
2021/04/11 14:34:07;;;;;;;3.00;0.70;;;;;;;;;;4977849;28;37887;-78
2021/04/11 14:36:41;;;;;;;4.80;1.00;;;;;;;;;;4983421;28;37703;-79
2021/04/11 14:39:15;;;;;;;2.45;0.60;;;;;;;;;;4968528;28;40051;-79
2021/04/11 14:41:43;;;;;;;4.15;0.68;;;;;;;;;;4977556;28;39355;-78
2021/04/11 14:44:11;;;;;;;4.68;0.45;;;;;;;;;;4986973;28;37916;-78
2021/04/11 14:46:55;;;;;;;4.43;0.52;;;;;;;;;;5001622;28;37394;-79
2021/04/11 14:49:26;;;;;;;4.53;0.55;;;;;;;;;;4985060;28;38884;-79
2021/04/11 14:51:57;;;;;;;1.52;0.40;;;;;;;;;;4983717;28;39927;-79
2021/04/11 14:54:56;;;;;;;3.15;0.52;;;;;;;;;;4985822;28;38679;-79
2021/04/11 14:57:41;;;;;;;4.68;0.75;;;;;;;;;;4989478;28;37860;-79
2021/04/11 15:00:22;;;;;;;2.90;0.40;;;;;;;;;;4996516;28;39463;-79
2021/04/11 15:03:01;;;;;;;3.13;0.50;;;;;;;;;;4982591;28;37281;-79
2021/04/11 15:05:33;;;;;;;5.82;1.02;;;;;;;;;;4986516;28;49219;-79
2021/04/11 15:08:18;;;;;;;3.10;0.40;;;;;;;;;;4981988;28;37475;-79
2021/04/11 15:11:09;;;;;;;3.13;0.70;;;;;;;;;;4997338;28;46977;-79
2021/04/11 15:13:53;;;;;;;3.47;0.60;;;;;;;;;;4985855;28;47771;-79
2021/04/11 15:16:43;;;;;;;2.92;0.47;;;;;;;;;;4999274;28;39863;-79
2021/04/11 15:19:16;;;;;;;4.03;0.63;;;;;;;;;;4961315;28;35980;-81
2021/04/11 15:22:01;;;;;;;1.93;0.60;;;;;;;;;;4980771;28;39726;-81